createdAt,value
2022-10-11T00:00:19.124Z,11.57
2022-10-11T00:02:46.033Z,11.41
2022-10-11T00:05:12.988Z,11.47
2022-10-11T00:07:40.162Z,11.37
2022-10-11T00:10:08.495Z,11.40
2022-10-11T00:12:36.617Z,11.12
2022-10-11T00:15:06.797Z,11.08
2022-10-11T00:17:34.504Z,11.09
2022-10-11T00:20:01.508Z,11.11
2022-10-11T00:22:28.416Z,11.03
2022-10-11T00:24:55.436Z,11.04
2022-10-11T00:27:22.409Z,11.09
2022-10-11T00:29:49.384Z,10.95
2022-10-11T00:32:16.449Z,10.92
2022-10-11T00:34:43.642Z,10.85
2022-10-11T00:37:10.750Z,10.88
2022-10-11T00:39:37.863Z,10.71
2022-10-11T00:42:05.055Z,10.70
2022-10-11T00:44:33.366Z,10.71
2022-10-11T00:47:14.323Z,10.67
2022-10-11T00:49:50.322Z,10.68
2022-10-11T00:52:31.584Z,10.71
2022-10-11T00:55:21.671Z,10.66
2022-10-11T00:57:52.721Z,10.48
2022-10-11T01:00:20.736Z,10.33
2022-10-11T01:02:47.940Z,10.28
2022-10-11T01:05:29.092Z,10.15
2022-10-11T01:07:57.737Z,10.31
2022-10-11T01:10:25.283Z,10.24
2022-10-11T01:13:13.928Z,10.19
2022-10-11T01:16:07.902Z,9.94
2022-10-11T01:18:49.451Z,9.94
2022-10-11T01:22:47.681Z,9.87
2022-10-11T01:26:14.419Z,9.65
2022-10-11T01:29:39.615Z,9.74
2022-10-11T01:32:12.520Z,9.59
2022-10-11T01:35:21.112Z,9.50
2022-10-11T01:38:20.758Z,9.74
2022-10-11T01:40:58.795Z,9.66
2022-10-11T01:43:27.795Z,9.61
2022-10-11T01:46:00.170Z,9.53
2022-10-11T01:48:30.163Z,9.56
2022-10-11T01:51:01.974Z,9.33
2022-10-11T01:54:09.698Z,9.38
2022-10-11T01:57:19.233Z,9.52
2022-10-11T02:00:14.159Z,9.43
2022-10-11T02:03:19.105Z,9.24
2022-10-11T02:06:17.239Z,9.21
2022-10-11T02:09:13.244Z,9.11
2022-10-11T02:11:41.199Z,8.91
2022-10-11T02:14:15.774Z,8.99
2022-10-11T02:16:57.118Z,8.96
2022-10-11T02:19:30.043Z,8.96
2022-10-11T02:22:05.923Z,8.92
2022-10-11T02:24:37.330Z,8.94
2022-10-11T02:27:06.399Z,8.80
2022-10-11T02:29:38.215Z,8.70
2022-10-11T02:32:07.199Z,8.77
2022-10-11T02:34:41.311Z,8.53
2022-10-11T02:37:52.897Z,8.59
2022-10-11T02:40:35.184Z,8.57
2022-10-11T02:43:39.389Z,8.54
2022-10-11T02:46:08.477Z,8.58
2022-10-11T02:48:39.887Z,8.41
2022-10-11T02:51:11.181Z,8.37
2022-10-11T02:53:38.109Z,8.53
2022-10-11T02:56:05.614Z,8.48
2022-10-11T02:58:32.798Z,8.34
2022-10-11T03:00:59.759Z,8.60
2022-10-11T03:03:26.823Z,8.36
2022-10-11T03:06:03.251Z,8.10
2022-10-11T03:08:30.802Z,7.97
2022-10-11T03:10:58.060Z,8.37
2022-10-11T03:13:25.050Z,8.20
2022-10-11T03:16:02.686Z,8.20
2022-10-11T03:18:31.001Z,8.19
2022-10-11T03:20:57.993Z,8.21
2022-10-11T03:23:24.980Z,8.03
2022-10-11T03:25:52.035Z,8.10
2022-10-11T03:28:20.321Z,8.30
2022-10-11T03:30:51.928Z,8.43
2022-10-11T03:33:19.201Z,8.48
2022-10-11T03:35:48.017Z,8.19
2022-10-11T03:38:20.848Z,8.14
2022-10-11T03:40:48.168Z,8.00
2022-10-11T03:43:15.732Z,8.26
2022-10-11T03:45:42.954Z,8.14
2022-10-11T03:48:11.243Z,8.50
2022-10-11T03:50:38.763Z,8.44
2022-10-11T03:53:07.234Z,8.21
2022-10-11T03:55:34.493Z,8.08
2022-10-11T03:58:01.654Z,8.07
2022-10-11T04:00:28.639Z,8.17
2022-10-11T04:02:55.610Z,8.22
2022-10-11T04:05:23.530Z,8.35
2022-10-11T04:07:50.753Z,8.38
2022-10-11T04:10:18.237Z,8.39
2022-10-11T04:12:45.225Z,8.36
2022-10-11T04:15:15.259Z,8.35
2022-10-11T04:17:42.327Z,8.11
2022-10-11T04:20:10.689Z,7.97
2022-10-11T04:22:38.395Z,7.84
2022-10-11T04:25:07.507Z,7.87
2022-10-11T04:27:35.347Z,7.92
2022-10-11T04:30:02.979Z,8.07
2022-10-11T04:32:30.483Z,7.98
2022-10-11T04:34:57.475Z,7.57
2022-10-11T04:37:24.544Z,7.77
2022-10-11T04:39:51.680Z,7.70
2022-10-11T04:42:18.669Z,7.92
2022-10-11T04:44:49.008Z,7.78
2022-10-11T04:47:16.004Z,7.69
2022-10-11T04:49:43.036Z,7.48
2022-10-11T04:52:11.619Z,7.63
2022-10-11T04:54:38.603Z,7.48
2022-10-11T04:57:05.881Z,7.39
2022-10-11T04:59:33.078Z,7.64
2022-10-11T05:02:00.143Z,7.35
2022-10-11T05:04:28.170Z,7.34
2022-10-11T05:06:55.510Z,7.19
2022-10-11T05:09:23.060Z,7.26
2022-10-11T05:11:50.322Z,7.51
2022-10-11T05:14:17.374Z,7.50
2022-10-11T05:16:44.332Z,7.79
2022-10-11T05:19:12.226Z,7.55
2022-10-11T05:21:39.868Z,7.48
2022-10-11T05:24:07.367Z,7.64
2022-10-11T05:26:34.526Z,7.35
2022-10-11T05:29:02.392Z,7.66
2022-10-11T05:31:29.447Z,7.83
2022-10-11T05:33:56.526Z,7.55
2022-10-11T05:36:23.473Z,7.75
2022-10-11T05:38:50.456Z,7.72
2022-10-11T05:41:17.708Z,7.53
2022-10-11T05:44:16.431Z,7.83
2022-10-11T05:46:43.552Z,7.88
2022-10-11T05:49:10.555Z,7.88
2022-10-11T05:51:37.936Z,7.83
2022-10-11T05:54:05.069Z,7.75
2022-10-11T05:56:33.487Z,7.75
2022-10-11T05:59:02.586Z,7.79
2022-10-11T06:01:29.971Z,8.06
2022-10-11T06:03:57.415Z,7.90
2022-10-11T06:06:24.433Z,8.07
2022-10-11T06:08:51.409Z,8.08
2022-10-11T06:11:25.428Z,8.18
2022-10-11T06:14:00.684Z,7.81
2022-10-11T06:16:28.161Z,7.91
2022-10-11T06:18:56.601Z,8.03
2022-10-11T06:21:24.863Z,8.09
2022-10-11T06:23:56.821Z,8.24
2022-10-11T06:26:27.432Z,8.20
2022-10-11T06:28:54.390Z,8.49
2022-10-11T06:31:22.373Z,8.61
2022-10-11T06:33:49.333Z,8.67
2022-10-11T06:36:17.306Z,8.88
2022-10-11T06:38:45.505Z,8.86
2022-10-11T06:41:32.864Z,8.97
2022-10-11T06:43:59.908Z,9.17
2022-10-11T06:46:28.156Z,9.18
2022-10-11T06:48:56.581Z,9.33
2022-10-11T06:51:30.000Z,9.36
2022-10-11T06:54:00.010Z,9.49
2022-10-11T06:56:29.876Z,9.33
2022-10-11T06:58:59.248Z,9.27
2022-10-11T07:01:28.901Z,9.31
2022-10-11T07:03:58.093Z,9.52
2022-10-11T07:06:30.298Z,9.24
2022-10-11T07:09:00.879Z,9.50
2022-10-11T07:11:29.204Z,9.35
2022-10-11T07:14:05.793Z,9.75
2022-10-11T07:16:33.533Z,9.72
2022-10-11T07:19:02.717Z,9.65
2022-10-11T07:21:32.776Z,9.61
2022-10-11T07:24:00.901Z,9.44
2022-10-11T07:26:33.725Z,9.78
2022-10-11T07:29:05.526Z,10.00
2022-10-11T07:31:32.770Z,9.94
2022-10-11T07:33:59.748Z,9.87
2022-10-11T07:36:26.956Z,10.10
2022-10-11T07:38:54.017Z,10.24
2022-10-11T07:41:21.110Z,10.43
2022-10-11T07:43:49.611Z,10.28
2022-10-11T07:46:18.318Z,10.07
2022-10-11T07:48:45.770Z,9.90
2022-10-11T07:51:19.417Z,10.02
2022-10-11T07:53:56.373Z,10.08
2022-10-11T07:56:29.910Z,10.06
2022-10-11T07:59:03.461Z,10.21
2022-10-11T08:01:31.818Z,10.31
2022-10-11T08:03:59.643Z,10.25
2022-10-11T08:06:32.992Z,10.26
2022-10-11T08:09:01.663Z,10.34
2022-10-11T08:11:34.155Z,10.70
2022-10-11T08:14:04.418Z,10.73
2022-10-11T08:16:31.564Z,10.88
2022-10-11T08:18:58.600Z,11.01
2022-10-11T08:21:26.861Z,10.81
2022-10-11T08:23:54.131Z,11.23
2022-10-11T08:26:21.826Z,11.47
2022-10-11T08:28:49.108Z,11.49
2022-10-11T08:31:16.953Z,11.26
2022-10-11T08:33:44.270Z,11.54
2022-10-11T08:36:12.761Z,11.63
2022-10-11T08:38:40.979Z,11.67
2022-10-11T08:41:53.048Z,11.91
2022-10-11T08:45:09.669Z,11.80
2022-10-11T08:47:46.806Z,12.02
2022-10-11T08:50:23.370Z,12.28
2022-10-11T08:53:28.931Z,12.59
2022-10-11T08:55:56.032Z,12.73
2022-10-11T08:58:40.083Z,12.50
2022-10-11T09:01:23.582Z,12.56
2022-10-11T09:03:51.616Z,12.49
2022-10-11T09:06:48.943Z,12.74
2022-10-11T09:09:33.824Z,12.92
2022-10-11T09:12:42.647Z,12.98
2022-10-11T09:15:48.119Z,12.88
2022-10-11T09:19:05.973Z,12.86
2022-10-11T09:21:46.300Z,13.36
2022-10-11T09:25:23.002Z,13.67
2022-10-11T09:28:24.180Z,13.69
2022-10-11T09:30:57.661Z,13.56
2022-10-11T09:33:36.346Z,13.80
2022-10-11T09:36:33.628Z,13.90
2022-10-11T09:39:35.740Z,14.04
2022-10-11T09:42:10.465Z,13.98
2022-10-11T09:44:52.077Z,14.26
2022-10-11T09:47:28.725Z,14.34
2022-10-11T09:50:15.023Z,14.31
2022-10-11T09:52:55.600Z,14.70
2022-10-11T09:55:52.091Z,14.94
2022-10-11T09:58:38.613Z,14.10
2022-10-11T10:01:11.501Z,14.55
2022-10-11T10:03:43.979Z,15.00
2022-10-11T10:06:24.474Z,14.95
2022-10-11T10:08:51.766Z,15.07
2022-10-11T10:11:19.876Z,15.20
2022-10-11T10:13:55.982Z,15.04
2022-10-11T10:16:32.838Z,15.50
2022-10-11T10:19:21.318Z,15.30
2022-10-11T10:21:53.605Z,15.50
2022-10-11T10:24:39.419Z,15.58
2022-10-11T10:27:14.751Z,15.29
2022-10-11T10:29:42.043Z,15.31
2022-10-11T10:32:27.986Z,15.97
2022-10-11T10:35:39.263Z,15.86
2022-10-11T10:38:26.274Z,15.74
2022-10-11T10:41:06.039Z,16.13
2022-10-11T10:43:40.725Z,16.48
2022-10-11T10:46:51.530Z,16.22
2022-10-11T10:49:55.437Z,16.41
2022-10-11T10:53:24.007Z,16.51
2022-10-11T10:56:36.343Z,16.04
2022-10-11T11:00:09.988Z,15.54
2022-10-11T11:03:03.505Z,15.33
2022-10-11T11:06:06.459Z,15.13
2022-10-11T11:09:04.455Z,15.74
2022-10-11T11:12:06.599Z,15.15
2022-10-11T11:15:04.120Z,14.61
2022-10-11T11:18:04.920Z,14.75
2022-10-11T11:21:27.308Z,15.17
2022-10-11T11:24:30.348Z,15.37
2022-10-11T11:27:45.000Z,16.06
2022-10-11T11:30:34.127Z,16.44
2022-10-11T11:33:28.299Z,16.11
2022-10-11T11:36:02.815Z,16.41
2022-10-11T11:38:59.890Z,16.25
2022-10-11T11:41:46.442Z,15.80
2022-10-11T11:44:35.837Z,16.06
2022-10-11T11:47:32.105Z,15.95
2022-10-11T11:50:20.952Z,16.10
2022-10-11T11:53:05.104Z,15.41
2022-10-11T11:56:09.547Z,15.57
2022-10-11T11:59:20.576Z,15.40
2022-10-11T12:02:44.266Z,15.05
2022-10-11T12:05:17.906Z,15.41
2022-10-11T12:08:23.442Z,15.89
2022-10-11T12:10:50.209Z,17.14
2022-10-11T12:13:39.795Z,17.51
2022-10-11T12:16:13.475Z,17.03
2022-10-11T12:19:14.293Z,16.29
2022-10-11T12:21:44.632Z,16.13
2022-10-11T12:24:15.637Z,16.17
2022-10-11T12:26:58.507Z,16.07
2022-10-11T12:29:48.245Z,15.45
2022-10-11T12:32:27.322Z,15.40
2022-10-11T12:35:33.303Z,15.19
2022-10-11T12:38:37.183Z,15.09
2022-10-11T12:41:09.957Z,15.15
2022-10-11T12:44:18.419Z,14.98
2022-10-11T12:46:51.490Z,15.37
2022-10-11T12:49:33.372Z,15.09
2022-10-11T12:52:17.614Z,15.12
2022-10-11T12:55:29.049Z,14.93
2022-10-11T12:58:08.722Z,15.10
2022-10-11T13:01:04.801Z,16.02
2022-10-11T13:04:11.536Z,15.75
2022-10-11T13:06:53.868Z,15.45
2022-10-11T13:09:43.242Z,15.16
2022-10-11T13:12:19.607Z,15.54
2022-10-11T13:15:03.758Z,15.74
2022-10-11T13:17:38.452Z,15.35
2022-10-11T13:20:42.518Z,15.28
2022-10-11T13:23:38.625Z,15.09
2022-10-11T13:26:09.260Z,15.63
2022-10-11T13:28:43.003Z,16.20
2022-10-11T13:31:10.537Z,16.21
2022-10-11T13:33:42.622Z,16.49
2022-10-11T13:36:19.791Z,16.88
2022-10-11T13:39:01.258Z,16.97
2022-10-11T13:41:32.581Z,17.08
2022-10-11T13:44:00.809Z,17.47
2022-10-11T13:46:30.879Z,17.04
2022-10-11T13:49:06.693Z,17.11
2022-10-11T13:51:37.721Z,16.40
2022-10-11T13:54:14.100Z,17.12
2022-10-11T13:56:52.174Z,16.74
2022-10-11T13:59:25.386Z,16.51
2022-10-11T14:02:01.213Z,16.59
2022-10-11T14:04:38.933Z,16.54
2022-10-11T14:07:06.009Z,16.15
2022-10-11T14:09:39.002Z,16.58
2022-10-11T14:12:44.633Z,16.87
2022-10-11T14:15:38.197Z,17.08
2022-10-11T14:18:59.197Z,16.63
2022-10-11T14:21:30.680Z,16.95
2022-10-11T14:24:06.893Z,17.12
2022-10-11T14:26:51.704Z,16.63
2022-10-11T14:29:39.582Z,16.90
2022-10-11T14:32:14.845Z,17.06
2022-10-11T14:34:48.890Z,16.76
2022-10-11T14:37:18.696Z,17.39
2022-10-11T14:39:47.731Z,16.94
2022-10-11T14:42:15.830Z,17.16
2022-10-11T14:44:43.213Z,17.13
2022-10-11T14:47:16.941Z,17.36
2022-10-11T14:49:44.891Z,16.42
2022-10-11T14:52:21.844Z,16.57
2022-10-11T14:54:58.042Z,16.30
2022-10-11T14:57:26.323Z,16.33
2022-10-11T14:59:53.281Z,15.82
2022-10-11T15:02:26.214Z,16.29
2022-10-11T15:04:53.734Z,15.92
2022-10-11T15:07:26.872Z,15.89
2022-10-11T15:10:25.056Z,15.86
2022-10-11T15:13:07.154Z,15.72
2022-10-11T15:15:37.843Z,15.50
2022-10-11T15:18:24.805Z,15.78
2022-10-11T15:20:55.228Z,15.40
2022-10-11T15:23:22.668Z,15.49
2022-10-11T15:25:52.503Z,15.48
2022-10-11T15:28:53.458Z,15.38
2022-10-11T15:31:21.555Z,15.22
2022-10-11T15:33:49.061Z,15.46
2022-10-11T15:36:27.211Z,15.01
2022-10-11T15:38:54.414Z,14.95
2022-10-11T15:41:22.024Z,14.66
2022-10-11T15:43:52.352Z,14.58
2022-10-11T15:46:22.761Z,14.48
2022-10-11T15:49:04.500Z,14.65
2022-10-11T15:51:33.858Z,14.52
2022-10-11T15:54:01.172Z,14.23
2022-10-11T15:56:32.963Z,13.99
2022-10-11T15:59:36.333Z,13.84
2022-10-11T16:02:05.022Z,14.07
2022-10-11T16:04:32.210Z,13.55
2022-10-11T16:07:02.135Z,13.45
2022-10-11T16:09:29.092Z,13.47
2022-10-11T16:11:56.025Z,13.42
2022-10-11T16:14:23.575Z,13.37
2022-10-11T16:16:50.839Z,13.16
2022-10-11T16:19:17.795Z,13.15
2022-10-11T16:21:44.957Z,13.09
2022-10-11T16:24:17.965Z,12.88
2022-10-11T16:26:45.301Z,12.91
2022-10-11T16:29:15.098Z,12.86
2022-10-11T16:31:42.111Z,12.91
2022-10-11T16:34:09.574Z,12.89
2022-10-11T16:36:36.916Z,12.85
2022-10-11T16:39:18.415Z,12.53
2022-10-11T16:41:46.623Z,12.52
2022-10-11T16:44:21.029Z,12.54
2022-10-11T16:46:49.288Z,12.50
2022-10-11T16:49:20.017Z,12.35
2022-10-11T16:51:47.056Z,12.09
2022-10-11T16:54:19.309Z,12.01
2022-10-11T16:56:49.893Z,11.99
2022-10-11T16:59:16.973Z,11.83
2022-10-11T17:01:45.116Z,11.75
2022-10-11T17:04:13.903Z,11.76
2022-10-11T17:06:43.807Z,11.79
2022-10-11T17:09:11.459Z,11.75
2022-10-11T17:11:38.518Z,11.75
2022-10-11T17:14:07.190Z,11.69
2022-10-11T17:16:35.693Z,11.61
2022-10-11T17:19:04.272Z,11.57
2022-10-11T17:21:32.766Z,11.52
2022-10-11T17:23:59.986Z,11.41
2022-10-11T17:26:27.987Z,11.32
2022-10-11T17:28:58.141Z,11.30
2022-10-11T17:31:26.296Z,11.18
2022-10-11T17:33:56.729Z,10.93
2022-10-11T17:36:32.083Z,10.58
2022-10-11T17:39:08.333Z,10.71
2022-10-11T17:41:35.514Z,10.86
2022-10-11T17:44:03.126Z,10.69
2022-10-11T17:46:33.867Z,10.65
2022-10-11T17:49:06.339Z,10.69
2022-10-11T17:51:36.491Z,10.64
2022-10-11T17:54:04.973Z,10.36
2022-10-11T17:56:37.411Z,10.14
2022-10-11T17:59:05.416Z,9.98
2022-10-11T18:01:35.928Z,9.94
2022-10-11T18:07:12.126Z,10.01
2022-10-11T18:09:48.153Z,9.87
2022-10-11T18:12:22.982Z,9.79
2022-10-11T18:14:53.999Z,9.59
2022-10-11T18:17:32.030Z,9.49
2022-10-11T18:20:02.782Z,9.53
2022-10-11T18:22:34.124Z,9.68
2022-10-11T18:25:05.264Z,9.82
2022-10-11T18:27:44.054Z,9.85
2022-10-11T18:30:11.703Z,9.76
2022-10-11T18:32:41.107Z,9.64
2022-10-11T18:35:40.280Z,9.62
2022-10-11T18:38:15.863Z,9.62
2022-10-11T18:40:48.851Z,9.58
2022-10-11T18:43:21.825Z,9.37
2022-10-11T18:45:49.494Z,9.26
2022-10-11T18:48:23.212Z,9.36
2022-10-11T18:50:50.760Z,9.38
2022-10-11T18:53:18.318Z,9.39
2022-10-11T18:55:45.469Z,8.68
2022-10-11T18:58:18.856Z,8.12
2022-10-11T19:00:49.690Z,7.99
2022-10-11T19:03:21.929Z,7.94
2022-10-11T19:06:00.212Z,7.95
2022-10-11T19:08:28.667Z,7.82
2022-10-11T19:10:55.988Z,7.88
2022-10-11T19:13:29.107Z,8.14
2022-10-11T19:16:20.671Z,8.33
2022-10-11T19:18:53.921Z,8.32
2022-10-11T19:21:22.404Z,8.12
2022-10-11T19:23:50.686Z,7.94
2022-10-11T19:26:27.057Z,7.81
2022-10-11T19:29:02.416Z,7.74
2022-10-11T19:31:31.056Z,7.77
2022-10-11T19:34:07.105Z,7.69
2022-10-11T19:36:36.770Z,7.71
2022-10-11T19:39:06.273Z,7.97
2022-10-11T19:41:36.691Z,7.79
2022-10-11T19:44:06.977Z,7.67
2022-10-11T19:49:25.440Z,7.60
2022-10-11T19:51:55.914Z,7.70
2022-10-11T19:54:23.869Z,7.29
2022-10-11T19:56:51.618Z,7.15
2022-10-11T19:59:22.125Z,7.08
2022-10-11T20:01:52.703Z,6.99
2022-10-11T20:07:13.380Z,6.88
2022-10-11T20:09:40.973Z,6.83
2022-10-11T20:12:08.881Z,6.90
2022-10-11T20:14:39.257Z,7.15
2022-10-11T20:17:06.719Z,7.26
2022-10-11T20:19:34.858Z,7.36
2022-10-11T20:22:02.353Z,7.14
2022-10-11T20:24:34.085Z,7.08
2022-10-11T20:27:06.856Z,7.22
2022-10-11T20:29:33.907Z,7.27
2022-10-11T20:32:01.429Z,7.29
2022-10-11T20:34:42.169Z,7.22
2022-10-11T20:37:09.534Z,7.14
2022-10-11T20:39:37.098Z,7.19
2022-10-11T20:42:04.643Z,6.92
2022-10-11T20:44:31.715Z,6.71
2022-10-11T20:47:03.715Z,6.66
2022-10-11T20:49:41.645Z,6.75
2022-10-11T20:52:08.909Z,6.70
2022-10-11T20:54:36.420Z,6.53
2022-10-11T20:57:04.032Z,6.55
2022-10-11T20:59:31.473Z,6.24
2022-10-11T21:01:58.389Z,6.16
2022-10-11T21:04:25.576Z,6.03
2022-10-11T21:06:52.827Z,6.20
2022-10-11T21:09:23.527Z,6.19
2022-10-11T21:11:50.911Z,6.46
2022-10-11T21:14:22.844Z,6.71
2022-10-11T21:16:50.831Z,6.88
2022-10-11T21:19:23.828Z,7.08
2022-10-11T21:21:56.293Z,7.25
2022-10-11T21:24:23.378Z,7.22
2022-10-11T21:27:00.764Z,7.05
2022-10-11T21:29:28.510Z,6.87
2022-10-11T21:31:58.833Z,6.65
2022-10-11T21:34:25.848Z,6.33
2022-10-11T21:36:56.369Z,5.92
2022-10-11T21:39:23.839Z,5.79
2022-10-11T21:41:51.319Z,5.82
2022-10-11T21:44:29.629Z,5.82
2022-10-11T21:47:07.118Z,6.10
2022-10-11T21:49:35.057Z,6.27
2022-10-11T21:52:18.545Z,6.06
2022-10-11T21:54:51.168Z,5.98
2022-10-11T21:57:21.652Z,5.89
2022-10-11T22:00:07.704Z,5.78
2022-10-11T22:02:46.213Z,5.72
2022-10-11T22:05:19.750Z,5.65
2022-10-11T22:07:47.335Z,5.56
2022-10-11T22:10:15.241Z,5.52
2022-10-11T22:12:45.727Z,5.54
2022-10-11T22:15:13.179Z,5.44
2022-10-11T22:17:46.633Z,5.46
2022-10-11T22:20:13.834Z,5.59
2022-10-11T22:22:41.179Z,5.64
2022-10-11T22:25:09.564Z,5.56
2022-10-11T22:27:42.395Z,5.19
2022-10-11T22:30:10.416Z,5.11
2022-10-11T22:32:38.063Z,5.40
2022-10-11T22:35:06.150Z,5.75
2022-10-11T22:37:34.707Z,6.07
2022-10-11T22:40:02.805Z,6.11
2022-10-11T22:42:30.673Z,6.29
2022-10-11T22:45:02.606Z,6.41
2022-10-11T22:47:54.570Z,6.38
2022-10-11T22:50:25.256Z,6.46
2022-10-11T22:52:56.097Z,6.60
2022-10-11T22:55:23.654Z,6.40
2022-10-11T22:57:54.091Z,6.48
2022-10-11T23:00:21.804Z,6.56
2022-10-11T23:03:06.646Z,6.49
2022-10-11T23:05:35.806Z,6.11
2022-10-11T23:08:03.014Z,5.76
2022-10-11T23:10:30.202Z,5.65
2022-10-11T23:12:57.761Z,5.49
2022-10-11T23:15:52.587Z,5.32
2022-10-11T23:18:42.417Z,5.59
2022-10-11T23:21:18.860Z,5.49
2022-10-11T23:23:59.109Z,5.66
2022-10-11T23:26:29.355Z,5.48
2022-10-11T23:29:16.268Z,5.23
2022-10-11T23:31:47.037Z,4.99
2022-10-11T23:34:20.230Z,5.01
2022-10-11T23:36:57.129Z,5.35
2022-10-11T23:42:39.288Z,5.31
2022-10-11T23:45:07.505Z,5.42
2022-10-11T23:47:40.767Z,5.55
2022-10-11T23:50:09.076Z,5.71
2022-10-11T23:52:39.472Z,5.81
2022-10-11T23:55:07.430Z,5.78
2022-10-11T23:57:46.306Z,5.84
